createdAt,value
2022-11-23T00:01:43.002Z,8.13
2022-11-23T00:04:13.944Z,6.97
2022-11-23T00:06:42.112Z,11.47
2022-11-23T00:09:11.266Z,9.20
2022-11-23T00:11:40.509Z,10.20
2022-11-23T00:14:08.467Z,7.03
2022-11-23T00:19:22.000Z,8.30
2022-11-23T00:21:49.933Z,8.07
2022-11-23T00:24:17.781Z,10.57
2022-11-23T00:26:46.992Z,8.27
2022-11-23T00:29:15.397Z,4.73
2022-11-23T00:31:43.411Z,9.60
2022-11-23T00:34:11.317Z,11.57
2022-11-23T00:36:39.149Z,9.67
2022-11-23T00:39:07.033Z,9.47
2022-11-23T00:41:35.976Z,9.97
2022-11-23T00:44:05.544Z,6.60
2022-11-23T00:46:33.446Z,8.93
2022-11-23T00:49:01.668Z,10.90
2022-11-23T00:51:32.630Z,7.80
2022-11-23T00:54:01.378Z,9.03
2022-11-23T00:56:31.013Z,5.73
2022-11-23T00:59:00.618Z,7.47
2022-11-23T01:01:33.849Z,10.30
2022-11-23T01:04:03.741Z,10.77
2022-11-23T01:06:33.276Z,8.70
2022-11-23T01:09:04.541Z,9.23
2022-11-23T01:11:33.595Z,7.67
2022-11-23T01:14:01.960Z,6.90
2022-11-23T01:16:33.226Z,7.47
2022-11-23T01:19:02.447Z,9.93
2022-11-23T01:21:31.504Z,8.13
2022-11-23T01:24:00.810Z,7.10
2022-11-23T01:26:28.661Z,9.27
2022-11-23T01:28:59.037Z,10.83
2022-11-23T01:31:27.743Z,8.80
2022-11-23T01:33:59.267Z,9.30
2022-11-23T01:36:29.694Z,9.97
2022-11-23T01:38:59.088Z,6.10
2022-11-23T01:41:30.429Z,12.10
2022-11-23T01:43:58.791Z,7.17
2022-11-23T01:46:26.852Z,6.83
2022-11-23T01:48:58.241Z,7.43
2022-11-23T01:51:30.102Z,9.73
2022-11-23T01:54:01.534Z,9.23
2022-11-23T01:56:33.949Z,6.23
2022-11-23T01:59:05.847Z,5.97
2022-11-23T02:01:33.926Z,7.87
2022-11-23T02:04:04.060Z,8.67
2022-11-23T02:06:33.895Z,7.57
2022-11-23T02:09:03.645Z,8.03
2022-11-23T02:11:31.698Z,8.43
2022-11-23T02:14:00.221Z,10.67
2022-11-23T02:16:30.250Z,12.67
2022-11-23T02:18:58.115Z,17.03
2022-11-23T02:21:27.609Z,9.83
2022-11-23T02:24:00.976Z,14.27
2022-11-23T02:26:31.780Z,14.73
2022-11-23T02:29:05.151Z,10.77
2022-11-23T02:31:33.273Z,12.97
2022-11-23T02:34:01.186Z,8.23
2022-11-23T02:36:38.813Z,8.77
2022-11-23T02:39:10.092Z,11.77
2022-11-23T02:41:42.621Z,13.47
2022-11-23T02:44:23.647Z,9.07
2022-11-23T02:46:52.078Z,9.23
2022-11-23T02:49:20.049Z,12.93
2022-11-23T02:51:47.893Z,11.77
2022-11-23T02:54:15.785Z,10.40
2022-11-23T02:56:44.954Z,12.13
2022-11-23T02:59:12.823Z,12.30
2022-11-23T03:01:43.128Z,10.07
2022-11-23T03:04:11.205Z,9.93
2022-11-23T03:06:39.043Z,8.77
2022-11-23T03:09:07.622Z,10.63
2022-11-23T03:11:35.542Z,12.23
2022-11-23T03:14:05.563Z,11.23
2022-11-23T03:16:42.393Z,7.70
2022-11-23T03:19:10.553Z,10.57
2022-11-23T03:21:38.500Z,13.03
2022-11-23T03:24:08.739Z,10.53
2022-11-23T03:26:37.705Z,13.00
2022-11-23T03:29:12.494Z,11.07
2022-11-23T03:31:41.344Z,10.50
2022-11-23T03:34:13.051Z,12.87
2022-11-23T03:36:41.459Z,11.87
2022-11-23T03:39:09.851Z,10.40
2022-11-23T03:41:56.544Z,8.33
2022-11-23T03:44:31.462Z,10.93
2022-11-23T03:46:59.503Z,14.13
2022-11-23T03:49:29.019Z,11.63
2022-11-23T03:51:57.140Z,9.03
2022-11-23T03:54:25.041Z,12.73
2022-11-23T03:56:52.984Z,11.53
2022-11-23T03:59:20.890Z,11.00
2022-11-23T04:01:50.165Z,13.17
2022-11-23T04:04:26.480Z,12.77
2022-11-23T04:07:00.299Z,8.07
2022-11-23T04:09:33.057Z,8.40
2022-11-23T04:12:07.317Z,11.13
2022-11-23T04:14:37.993Z,10.00
2022-11-23T04:17:07.297Z,13.40
2022-11-23T04:19:35.315Z,9.17
2022-11-23T04:22:03.592Z,8.37
2022-11-23T04:24:36.896Z,8.97
2022-11-23T04:27:06.561Z,11.80
2022-11-23T04:29:34.767Z,11.80
2022-11-23T04:32:02.773Z,11.50
2022-11-23T04:34:31.998Z,11.23
2022-11-23T04:37:02.514Z,10.30
2022-11-23T04:39:36.718Z,9.13
2022-11-23T04:42:18.961Z,12.80
2022-11-23T04:44:52.248Z,8.93
2022-11-23T04:47:20.520Z,9.90
2022-11-23T04:49:51.040Z,13.90
2022-11-23T04:52:22.200Z,9.07
2022-11-23T04:54:51.733Z,11.77
2022-11-23T04:57:19.921Z,11.00
2022-11-23T04:59:51.373Z,14.57
2022-11-23T05:02:19.293Z,8.60
2022-11-23T05:04:47.193Z,15.43
2022-11-23T05:07:18.522Z,7.00
2022-11-23T05:09:53.125Z,15.40
2022-11-23T05:12:22.650Z,9.50
2022-11-23T05:14:51.382Z,16.13
2022-11-23T05:17:24.461Z,9.50
2022-11-23T05:19:55.749Z,11.00
2022-11-23T05:22:25.692Z,12.70
2022-11-23T05:24:54.513Z,14.00
2022-11-23T05:27:25.356Z,9.97
2022-11-23T05:29:53.200Z,11.13
2022-11-23T05:32:21.104Z,11.03
2022-11-23T05:34:49.909Z,12.03
2022-11-23T05:37:19.547Z,12.73
2022-11-23T05:39:55.329Z,12.97
2022-11-23T05:42:24.615Z,10.23
2022-11-23T05:44:56.012Z,14.37
2022-11-23T05:47:30.846Z,13.40
2022-11-23T05:49:58.691Z,12.73
2022-11-23T05:52:30.069Z,14.13
2022-11-23T05:54:59.581Z,15.97
2022-11-23T05:57:27.462Z,13.10
2022-11-23T05:59:56.047Z,9.13
2022-11-23T06:02:30.062Z,14.17
2022-11-23T06:05:02.104Z,13.20
2022-11-23T06:07:40.118Z,15.13
2022-11-23T06:10:14.109Z,9.73
2022-11-23T06:12:46.984Z,14.37
2022-11-23T06:15:18.233Z,12.77
2022-11-23T06:17:47.409Z,12.10
2022-11-23T06:20:20.186Z,10.30
2022-11-23T06:22:56.946Z,10.27
2022-11-23T06:25:27.954Z,10.20
2022-11-23T06:28:06.837Z,9.70
2022-11-23T06:30:44.585Z,9.47
2022-11-23T06:33:13.853Z,10.40
2022-11-23T06:35:54.012Z,12.03
2022-11-23T06:38:22.338Z,10.57
2022-11-23T06:41:00.712Z,7.63
2022-11-23T06:43:31.073Z,11.43
2022-11-23T06:46:00.207Z,9.40
2022-11-23T06:48:30.341Z,11.30
2022-11-23T06:51:00.233Z,9.20
2022-11-23T06:53:29.960Z,12.37
2022-11-23T06:56:04.336Z,13.77
2022-11-23T06:58:33.505Z,11.50
2022-11-23T07:01:06.092Z,13.23
2022-11-23T07:03:40.249Z,10.03
2022-11-23T07:06:19.789Z,11.80
2022-11-23T07:08:47.986Z,10.07
2022-11-23T07:11:26.559Z,7.43
2022-11-23T07:13:54.426Z,8.13
2022-11-23T07:16:22.514Z,15.47
2022-11-23T07:18:51.705Z,12.27
2022-11-23T07:21:19.630Z,11.13
2022-11-23T07:23:47.811Z,12.07
2022-11-23T07:26:15.967Z,7.57
2022-11-23T07:28:45.249Z,10.93
2022-11-23T07:31:15.954Z,13.33
2022-11-23T07:33:45.994Z,10.57
2022-11-23T07:36:14.697Z,12.00
2022-11-23T07:38:44.170Z,11.60
2022-11-23T07:41:14.398Z,12.00
2022-11-23T07:44:00.886Z,13.43
2022-11-23T07:46:28.949Z,12.27
2022-11-23T07:49:01.498Z,10.90
2022-11-23T07:51:29.437Z,11.90
2022-11-23T07:53:57.522Z,8.47
2022-11-23T07:56:25.452Z,11.23
2022-11-23T07:58:53.456Z,14.13
2022-11-23T08:01:22.711Z,9.53
2022-11-23T08:03:50.760Z,11.10
2022-11-23T08:06:18.740Z,10.70
2022-11-23T08:08:46.641Z,9.93
2022-11-23T08:11:17.093Z,8.83
2022-11-23T08:13:45.214Z,11.80
2022-11-23T08:16:13.095Z,9.43
2022-11-23T08:18:42.277Z,8.63
2022-11-23T08:21:10.120Z,12.00
2022-11-23T08:23:37.967Z,9.90
2022-11-23T08:26:13.174Z,9.27
2022-11-23T08:28:41.576Z,7.40
2022-11-23T08:31:09.955Z,9.40
2022-11-23T08:33:37.974Z,8.97
2022-11-23T08:36:08.795Z,9.80
2022-11-23T08:38:36.721Z,7.87
2022-11-23T08:41:05.431Z,11.17
2022-11-23T08:43:34.350Z,9.30
2022-11-23T08:46:06.781Z,9.43
2022-11-23T08:48:37.268Z,12.13
2022-11-23T08:51:06.948Z,14.17
2022-11-23T08:53:35.046Z,10.00
2022-11-23T08:56:03.663Z,8.07
2022-11-23T08:58:32.445Z,12.60
2022-11-23T09:01:00.454Z,14.67
2022-11-23T09:03:28.333Z,8.77
2022-11-23T09:06:00.575Z,11.57
2022-11-23T09:08:30.041Z,9.17
2022-11-23T09:11:01.050Z,16.23
2022-11-23T09:13:29.017Z,11.20
2022-11-23T09:15:59.634Z,7.43
2022-11-23T09:18:27.790Z,10.07
2022-11-23T09:20:55.646Z,8.03
2022-11-23T09:23:23.665Z,7.80
2022-11-23T09:25:52.946Z,9.70
2022-11-23T09:28:20.908Z,12.63
2022-11-23T09:30:49.091Z,8.80
2022-11-23T09:33:17.107Z,13.20
2022-11-23T09:35:44.961Z,8.87
2022-11-23T09:38:12.800Z,8.37
2022-11-23T09:40:42.077Z,8.43
2022-11-23T09:43:28.737Z,10.67
2022-11-23T09:45:58.400Z,11.83
2022-11-23T09:48:37.729Z,9.33
2022-11-23T09:51:12.884Z,11.83
2022-11-23T09:53:45.781Z,7.93
2022-11-23T09:56:19.200Z,6.70
2022-11-23T09:58:50.004Z,7.07
2022-11-23T10:01:17.987Z,9.37
2022-11-23T10:03:49.315Z,9.93
2022-11-23T10:06:20.182Z,11.37
2022-11-23T10:08:58.658Z,6.97
2022-11-23T10:11:41.003Z,6.30
2022-11-23T10:14:36.820Z,7.73
2022-11-23T10:17:16.056Z,8.10
2022-11-23T10:20:00.013Z,9.40
2022-11-23T10:22:36.670Z,9.53
2022-11-23T10:25:17.076Z,8.83
2022-11-23T10:27:47.889Z,8.20
2022-11-23T10:30:19.399Z,6.67
2022-11-23T10:32:52.055Z,9.63
2022-11-23T10:35:28.363Z,6.50
2022-11-23T10:38:12.362Z,9.00
2022-11-23T10:40:56.872Z,6.20
2022-11-23T10:43:27.828Z,8.47
2022-11-23T10:46:24.363Z,6.07
2022-11-23T10:48:53.202Z,7.27
2022-11-23T10:51:28.781Z,8.47
2022-11-23T10:54:04.926Z,6.37
2022-11-23T10:56:34.283Z,7.10
2022-11-23T10:59:02.343Z,7.33
2022-11-23T11:01:31.603Z,4.27
2022-11-23T11:04:05.215Z,5.33
2022-11-23T11:06:36.147Z,5.60
2022-11-23T11:09:12.200Z,8.33
2022-11-23T11:11:48.886Z,6.33
2022-11-23T11:14:18.856Z,5.17
2022-11-23T11:16:51.223Z,4.50
2022-11-23T11:19:27.112Z,8.83
2022-11-23T11:21:55.378Z,6.77
2022-11-23T11:24:28.102Z,5.33
2022-11-23T11:27:00.715Z,6.67
2022-11-23T11:29:38.811Z,3.17
2022-11-23T11:32:13.098Z,6.73
2022-11-23T11:34:46.975Z,3.60
2022-11-23T11:37:24.383Z,4.13
2022-11-23T11:39:56.527Z,2.13
2022-11-23T11:42:41.442Z,3.87
2022-11-23T11:45:17.442Z,5.00
2022-11-23T11:47:52.669Z,5.90
2022-11-23T11:50:31.212Z,4.50
2022-11-23T11:53:04.968Z,4.47
2022-11-23T11:55:46.242Z,4.83
2022-11-23T11:58:17.615Z,4.67
2022-11-23T12:00:49.238Z,5.03
2022-11-23T12:03:30.509Z,6.70
2022-11-23T12:06:05.198Z,4.33
2022-11-23T12:08:41.572Z,6.10
2022-11-23T12:11:13.610Z,3.57
2022-11-23T12:13:44.241Z,7.03
2022-11-23T12:16:21.777Z,3.17
2022-11-23T12:19:10.108Z,4.50
2022-11-23T12:21:58.386Z,4.80
2022-11-23T12:24:40.350Z,3.90
2022-11-23T12:27:20.854Z,4.23
2022-11-23T12:30:02.623Z,5.87
2022-11-23T12:32:41.284Z,5.43
2022-11-23T12:35:34.030Z,6.30
2022-11-23T12:38:12.461Z,4.47
2022-11-23T12:40:54.456Z,2.80
2022-11-23T12:43:29.876Z,5.67
2022-11-23T12:46:11.680Z,3.33
2022-11-23T12:48:51.154Z,4.67
2022-11-23T12:51:29.862Z,5.73
2022-11-23T12:54:13.592Z,5.57
2022-11-23T12:56:59.866Z,4.83
2022-11-23T12:59:38.605Z,4.83
2022-11-23T13:02:14.713Z,3.57
2022-11-23T13:05:07.519Z,4.23
2022-11-23T13:08:04.144Z,3.03
2022-11-23T13:10:41.436Z,6.00
2022-11-23T13:13:24.847Z,6.00
2022-11-23T13:16:15.791Z,2.73
2022-11-23T13:19:04.478Z,4.20
2022-11-23T13:21:38.350Z,4.73
2022-11-23T13:24:25.987Z,4.17
2022-11-23T13:27:31.576Z,3.27
2022-11-23T13:30:01.181Z,3.80
2022-11-23T13:32:43.509Z,4.57
2022-11-23T13:35:44.912Z,7.83
2022-11-23T13:38:28.550Z,2.97
2022-11-23T13:40:57.757Z,3.60
2022-11-23T13:43:28.545Z,4.60
2022-11-23T13:46:32.876Z,3.07
2022-11-23T13:49:01.576Z,5.73
2022-11-23T13:51:31.765Z,3.00
2022-11-23T13:54:02.533Z,4.20
2022-11-23T13:56:35.617Z,7.33
2022-11-23T13:59:31.639Z,5.10
2022-11-23T14:02:34.895Z,4.23
2022-11-23T14:05:32.092Z,5.23
2022-11-23T14:08:02.608Z,3.53
2022-11-23T14:10:32.811Z,4.47
2022-11-23T14:13:09.342Z,4.07
2022-11-23T14:15:39.957Z,4.10
2022-11-23T14:18:31.311Z,4.70
2022-11-23T14:21:08.532Z,7.03
2022-11-23T14:24:04.580Z,5.07
2022-11-23T14:26:38.051Z,5.67
2022-11-23T14:29:34.991Z,4.67
2022-11-23T14:32:17.466Z,3.20
2022-11-23T14:34:56.505Z,3.60
2022-11-23T14:37:33.725Z,3.70
2022-11-23T14:40:15.988Z,7.43
2022-11-23T14:42:46.936Z,3.60
2022-11-23T14:45:16.764Z,2.73
2022-11-23T14:47:44.619Z,5.60
2022-11-23T14:50:24.087Z,3.90
2022-11-23T14:52:54.327Z,5.30
2022-11-23T14:55:24.440Z,5.70
2022-11-23T14:57:56.402Z,4.50
2022-11-23T15:00:31.044Z,4.33
2022-11-23T15:03:20.689Z,5.13
2022-11-23T15:05:55.203Z,4.67
2022-11-23T15:08:26.763Z,5.83
2022-11-23T15:11:01.928Z,4.10
2022-11-23T15:13:32.047Z,5.83
2022-11-23T15:16:05.940Z,4.70
2022-11-23T15:18:36.058Z,8.87
2022-11-23T15:21:08.391Z,4.97
2022-11-23T15:23:37.904Z,4.67
2022-11-23T15:26:28.555Z,4.57
2022-11-23T15:29:00.981Z,5.03
2022-11-23T15:31:33.953Z,3.70
2022-11-23T15:34:04.962Z,3.00
2022-11-23T15:36:35.743Z,5.73
2022-11-23T15:39:08.269Z,3.60
2022-11-23T15:41:37.574Z,4.80
2022-11-23T15:44:18.748Z,3.83
2022-11-23T15:46:49.610Z,5.20
2022-11-23T15:49:18.974Z,5.83
2022-11-23T15:51:47.215Z,2.43
2022-11-23T15:54:19.232Z,3.30
2022-11-23T15:56:49.553Z,4.50
2022-11-23T15:59:32.447Z,8.07
2022-11-23T16:02:02.899Z,3.57
2022-11-23T16:04:32.403Z,4.07
2022-11-23T16:07:16.367Z,4.27
2022-11-23T16:09:52.425Z,7.83
2022-11-23T16:12:26.801Z,7.47
2022-11-23T16:14:55.675Z,6.10
2022-11-23T16:17:26.399Z,3.57
2022-11-23T16:19:55.697Z,4.63
2022-11-23T16:22:30.757Z,5.17
2022-11-23T16:25:08.057Z,3.67
2022-11-23T16:27:36.997Z,4.87
2022-11-23T16:30:05.848Z,4.37
2022-11-23T16:32:35.067Z,3.37
2022-11-23T16:35:17.303Z,4.10
2022-11-23T16:37:45.486Z,5.13
2022-11-23T16:40:14.710Z,3.07
2022-11-23T16:42:42.572Z,4.90
2022-11-23T16:45:11.450Z,4.57
2022-11-23T16:47:53.321Z,4.30
2022-11-23T16:50:22.122Z,3.97
2022-11-23T16:52:49.999Z,4.13
2022-11-23T16:55:18.113Z,4.13
2022-11-23T16:57:47.357Z,3.90
2022-11-23T17:00:16.569Z,2.93
2022-11-23T17:02:46.091Z,3.07
2022-11-23T17:05:19.449Z,3.33
2022-11-23T17:07:47.842Z,5.60
2022-11-23T17:10:15.915Z,3.30
2022-11-23T17:12:50.546Z,3.93
2022-11-23T17:15:20.121Z,4.73
2022-11-23T17:17:49.660Z,2.20
2022-11-23T17:20:18.579Z,4.97
2022-11-23T17:22:51.283Z,4.70
2022-11-23T17:25:19.496Z,3.97
2022-11-23T17:27:47.365Z,4.47
2022-11-23T17:30:17.063Z,4.57
2022-11-23T17:32:45.060Z,4.63
2022-11-23T17:35:14.401Z,4.60
2022-11-23T17:37:42.966Z,4.37
2022-11-23T17:40:16.238Z,5.27
2022-11-23T17:42:44.414Z,4.43
2022-11-23T17:45:12.987Z,4.70
2022-11-23T17:47:42.146Z,3.43
2022-11-23T17:50:17.444Z,3.87
2022-11-23T17:52:45.354Z,6.07
2022-11-23T17:55:14.161Z,7.50
2022-11-23T17:57:42.339Z,5.70
2022-11-23T18:00:17.980Z,7.73
2022-11-23T18:02:46.054Z,3.67
2022-11-23T18:05:21.225Z,3.60
2022-11-23T18:07:50.031Z,5.87
2022-11-23T18:10:18.554Z,7.17
2022-11-23T18:12:46.530Z,5.00
2022-11-23T18:15:15.058Z,5.23
2022-11-23T18:17:42.980Z,6.67
2022-11-23T18:20:13.049Z,4.20
2022-11-23T18:22:42.341Z,4.30
2022-11-23T18:25:10.927Z,7.53
2022-11-23T18:27:38.777Z,5.13
2022-11-23T18:30:08.249Z,5.70
2022-11-23T18:32:36.314Z,6.37
2022-11-23T18:35:05.092Z,6.23
2022-11-23T18:37:33.037Z,6.07
2022-11-23T18:40:02.559Z,7.07
2022-11-23T18:42:30.496Z,6.17
2022-11-23T18:44:58.342Z,6.73
2022-11-23T18:47:26.222Z,9.67
2022-11-23T18:49:54.499Z,8.47
2022-11-23T18:52:22.840Z,11.77
2022-11-23T18:54:50.749Z,8.33
2022-11-23T18:57:19.956Z,9.13
2022-11-23T18:59:57.979Z,8.20
2022-11-23T19:02:26.938Z,9.57
2022-11-23T19:04:54.842Z,9.23
2022-11-23T19:07:26.911Z,7.80
2022-11-23T19:09:55.507Z,7.67
2022-11-23T19:12:24.716Z,10.30
2022-11-23T19:14:52.545Z,8.30
2022-11-23T19:17:20.358Z,9.63
2022-11-23T19:19:48.177Z,9.10
2022-11-23T19:22:16.065Z,9.50
2022-11-23T19:24:43.950Z,8.83
2022-11-23T19:27:11.738Z,9.20
2022-11-23T19:29:40.957Z,7.97
2022-11-23T19:32:08.918Z,14.00
2022-11-23T19:34:36.737Z,10.77
2022-11-23T19:37:04.609Z,11.23
2022-11-23T19:39:32.689Z,16.73
2022-11-23T19:42:00.627Z,10.27
2022-11-23T19:44:28.497Z,9.70
2022-11-23T19:46:57.649Z,9.63
2022-11-23T19:49:25.480Z,10.80
2022-11-23T19:51:54.128Z,8.00
2022-11-23T19:54:22.007Z,9.23
2022-11-23T19:56:50.603Z,12.10
2022-11-23T19:59:18.816Z,8.03
2022-11-23T20:01:46.802Z,9.07
2022-11-23T20:04:16.062Z,11.97
2022-11-23T20:06:44.573Z,12.93
2022-11-23T20:09:16.593Z,10.97
2022-11-23T20:11:49.315Z,12.73
2022-11-23T20:14:18.761Z,13.07
2022-11-23T20:16:47.514Z,11.77
2022-11-23T20:19:16.695Z,12.37
2022-11-23T20:21:44.558Z,11.43
2022-11-23T20:24:13.799Z,12.27
2022-11-23T20:26:42.716Z,11.27
2022-11-23T20:29:10.892Z,14.20
2022-11-23T20:31:40.029Z,12.13
2022-11-23T20:34:10.120Z,12.97
2022-11-23T20:36:41.529Z,12.50
2022-11-23T20:39:11.943Z,10.43
2022-11-23T20:41:40.012Z,12.13
2022-11-23T20:44:11.471Z,15.87
2022-11-23T20:49:27.175Z,14.73
2022-11-23T20:51:56.384Z,15.70
2022-11-23T20:54:24.170Z,18.50
2022-11-23T20:56:52.149Z,12.33
2022-11-23T20:59:20.518Z,15.33
2022-11-23T21:01:48.423Z,16.03
2022-11-23T21:04:16.427Z,14.07
2022-11-23T21:06:44.377Z,19.53
2022-11-23T21:09:13.584Z,18.63
2022-11-23T21:11:59.112Z,17.53
2022-11-23T21:14:28.353Z,13.20
2022-11-23T21:16:58.510Z,20.60
2022-11-23T21:19:28.275Z,19.00
2022-11-23T21:21:57.721Z,16.00
2022-11-23T21:24:26.974Z,20.33
2022-11-23T21:26:55.079Z,17.23
2022-11-23T21:29:23.781Z,14.47
2022-11-23T21:31:51.769Z,16.87
2022-11-23T21:34:21.678Z,15.33
2022-11-23T21:36:49.992Z,18.40
2022-11-23T21:39:18.575Z,15.60
2022-11-23T21:41:49.621Z,17.50
2022-11-23T21:44:18.216Z,20.97
2022-11-23T21:46:46.435Z,15.93
2022-11-23T21:49:14.349Z,17.37
2022-11-23T21:51:43.566Z,12.03
2022-11-23T21:54:15.451Z,14.97
2022-11-23T21:56:43.718Z,14.47
2022-11-23T21:59:13.550Z,14.27
2022-11-23T22:01:42.376Z,15.33
2022-11-23T22:04:12.306Z,15.87
2022-11-23T22:06:41.857Z,18.37
2022-11-23T22:09:11.280Z,20.47
2022-11-23T22:11:41.559Z,17.37
2022-11-23T22:14:12.657Z,19.13
2022-11-23T22:16:42.526Z,20.43
2022-11-23T22:19:12.639Z,18.03
2022-11-23T22:21:42.435Z,19.53
2022-11-23T22:24:13.539Z,19.10
2022-11-23T22:26:41.708Z,21.50
2022-11-23T22:29:10.542Z,20.50
2022-11-23T22:31:40.154Z,16.03
2022-11-23T22:34:11.590Z,17.77
2022-11-23T22:36:39.576Z,19.53
2022-11-23T22:39:08.632Z,15.67
2022-11-23T22:41:37.967Z,18.73
2022-11-23T22:44:07.713Z,19.33
2022-11-23T22:46:36.124Z,15.13
2022-11-23T22:49:05.813Z,17.13
2022-11-23T22:51:33.952Z,13.80
2022-11-23T22:54:02.655Z,15.23
2022-11-23T22:56:32.038Z,20.87
2022-11-23T22:59:00.799Z,16.17
2022-11-23T23:01:30.405Z,16.07
2022-11-23T23:04:00.390Z,18.87
2022-11-23T23:06:33.441Z,20.47
2022-11-23T23:09:02.676Z,18.60
2022-11-23T23:11:31.972Z,18.37
2022-11-23T23:14:00.690Z,18.20
2022-11-23T23:16:29.823Z,15.53
2022-11-23T23:18:59.080Z,13.27
2022-11-23T23:21:29.823Z,19.07
2022-11-23T23:24:00.869Z,15.03
2022-11-23T23:26:29.362Z,11.97
2022-11-23T23:28:58.940Z,13.40
2022-11-23T23:31:27.765Z,17.03
2022-11-23T23:33:56.820Z,13.23
2022-11-23T23:36:25.658Z,15.47
2022-11-23T23:38:55.007Z,13.20
2022-11-23T23:41:22.990Z,16.00
2022-11-23T23:43:50.949Z,14.27
2022-11-23T23:46:19.151Z,12.07
2022-11-23T23:48:47.471Z,12.73
2022-11-23T23:51:17.007Z,15.60
2022-11-23T23:53:45.823Z,20.47
2022-11-23T23:56:16.499Z,19.23
2022-11-23T23:58:44.882Z,19.27
